Time;durP1;ratioP1;P1;durP2;ratioP2;P2;SDS_P1;SDS_P2;PMS_P1;PMS_P2;Temp;Humidity;BMP_temperature;BMP_pressure;BME280_temperature;BME280_humidity;BME280_pressure;Samples;Min_cycle;Max_cycle;Signal;HPM_P1;HPM_P2
2023/01/18 00:01:07;;;;;;;3.85;2.83;;;0.80;87.80;;;;;;5036309;28;20112;-48
2023/01/18 00:03:38;;;;;;;5.18;2.70;;;0.80;87.70;;;;;;5034384;28;20091;-49
2023/01/18 00:06:08;;;;;;;8.90;3.47;;;0.70;87.70;;;;;;5016682;28;20033;-48
2023/01/18 00:08:37;;;;;;;6.20;2.58;;;0.70;87.70;;;;;;5016176;28;20029;-47
2023/01/18 00:11:15;;;;;;;7.22;3.15;;;0.80;87.60;;;;;;5016057;28;20104;-47
2023/01/18 00:13:42;;;;;;;6.72;2.65;;;0.70;87.50;;;;;;5016388;28;20463;-48
2023/01/18 00:16:14;;;;;;;8.65;3.40;;;0.70;87.60;;;;;;5031177;28;20108;-46
2023/01/18 00:18:41;;;;;;;5.60;2.45;;;0.70;87.60;;;;;;5035083;28;20029;-49
2023/01/18 00:21:10;;;;;;;7.00;2.42;;;0.60;87.60;;;;;;5035961;28;20029;-47
2023/01/18 00:23:37;;;;;;;6.05;2.17;;;0.60;87.50;;;;;;5031420;28;20038;-50
2023/01/18 00:26:09;;;;;;;8.57;2.72;;;0.50;87.50;;;;;;5015101;28;20109;-48
2023/01/18 00:28:37;;;;;;;5.03;2.03;;;0.40;87.60;;;;;;5015208;28;20057;-48
2023/01/18 00:31:16;;;;;;;5.40;2.55;;;0.40;87.60;;;;;;5014810;28;20026;-47
2023/01/18 00:33:48;;;;;;;6.03;2.67;;;0.30;87.70;;;;;;5020984;28;20026;-46
2023/01/18 00:36:18;;;;;;;6.22;2.70;;;0.20;88.10;;;;;;5029309;28;20462;-49
2023/01/18 00:38:54;;;;;;;5.15;3.17;;;0.30;88.20;;;;;;5035932;28;20386;-46
2023/01/18 00:41:21;;;;;;;6.28;3.47;;;0.20;87.90;;;;;;5035545;28;20037;-47
2023/01/18 00:43:47;;;;;;;7.13;3.08;;;0.20;88.00;;;;;;5017843;28;20045;-47
2023/01/18 00:46:17;;;;;;;5.85;3.17;;;0.20;87.90;;;;;;5016037;28;20109;-46
2023/01/18 00:48:44;;;;;;;;;;;0.10;87.90;;;;;;5029972;28;20355;-48
2023/01/18 00:51:20;;;;;;;7.72;3.20;;;0.10;88.00;;;;;;5035419;28;19963;-47
2023/01/18 00:53:46;;;;;;;6.25;2.92;;;0.20;88.20;;;;;;5035321;28;20045;-45
2023/01/18 00:56:16;;;;;;;5.70;2.80;;;0.10;88.20;;;;;;5030162;28;20034;-48
2023/01/18 00:58:43;;;;;;;4.68;3.28;;;0.00;88.00;;;;;;5015878;28;20079;-48
2023/01/18 01:01:11;;;;;;;7.82;3.40;;;0.00;88.10;;;;;;5014036;28;20088;-47
2023/01/18 01:06:45;;;;;;;6.07;3.13;;;0.10;88.60;;;;;;5020188;28;20053;-47
2023/01/18 01:09:20;;;;;;;7.90;2.90;;;0.10;88.70;;;;;;5014354;28;20037;-50
2023/01/18 01:26:06;;;;;;;7.25;3.97;;;0.00;88.50;;;;;;5014738;28;20238;-47
2023/01/18 01:28:39;;;;;;;9.02;6.72;;;0.00;88.30;;;;;;5030201;28;20030;-47
2023/01/18 01:31:08;;;;;;;6.90;4.32;;;0.00;88.40;;;;;;5032929;28;20541;-47
2023/01/18 01:33:40;;;;;;;6.72;3.80;;;0.00;88.30;;;;;;5031412;28;20498;-46
2023/01/18 01:36:12;;;;;;;8.80;3.60;;;0.00;88.30;;;;;;5015830;28;20112;-49
2023/01/18 01:38:40;;;;;;;6.07;3.88;;;0.00;88.20;;;;;;5013696;28;20452;-49
2023/01/18 01:41:36;;;;;;;6.38;4.30;;;0.00;88.20;;;;;;5014804;28;20049;-48
2023/01/18 01:44:20;;;;;;;6.18;4.15;;;-3276.70;88.40;;;;;;5029335;28;20384;-47
2023/01/18 01:47:01;;;;;;;6.70;4.00;;;-3276.70;88.30;;;;;;5018183;28;20030;-50
2023/01/18 01:49:34;;;;;;;9.13;6.05;;;-3276.70;88.40;;;;;;5034566;28;20036;-49
2023/01/18 01:52:03;;;;;;;8.23;4.28;;;-3276.70;88.50;;;;;;5019450;28;20081;-47
2023/01/18 01:54:50;;;;;;;7.90;4.65;;;-3276.70;88.40;;;;;;5014540;28;20411;-47
2023/01/18 01:57:30;;;;;;;6.10;4.10;;;-3276.60;88.20;;;;;;5014576;28;20080;-46
2023/01/18 02:00:06;;;;;;;10.07;4.25;;;-3276.60;88.40;;;;;;5014666;28;20022;-46
2023/01/18 02:02:34;;;;;;;8.50;3.80;;;-3276.60;88.60;;;;;;5029983;28;20033;-47
2023/01/18 02:05:04;;;;;;;6.13;4.38;;;-3276.60;88.60;;;;;;5032550;28;20454;-49
2023/01/18 02:07:34;;;;;;;8.52;4.72;;;-3276.60;88.60;;;;;;5032235;28;20068;-48
2023/01/18 02:10:04;;;;;;;7.05;4.07;;;-3276.60;88.50;;;;;;5026641;28;20060;-46
2023/01/18 02:12:36;;;;;;;8.38;4.00;;;-3276.60;88.30;;;;;;5014193;28;20026;-48
2023/01/18 02:15:03;;;;;;;8.70;4.35;;;-3276.50;88.30;;;;;;5013832;28;20042;-47
2023/01/18 02:18:01;;;;;;;8.18;4.32;;;-3276.50;88.20;;;;;;5026558;28;20041;-47
2023/01/18 02:21:04;;;;;;;7.60;4.63;;;-3276.50;88.20;;;;;;5029475;28;20037;-46
2023/01/18 02:23:45;;;;;;;6.43;3.80;;;-3276.40;88.10;;;;;;5021502;28;20091;-46
2023/01/18 02:26:52;;;;;;;8.38;5.07;;;-3276.40;88.40;;;;;;5029816;28;20454;-48
2023/01/18 02:29:43;;;;;;;8.95;4.22;;;-3276.40;88.30;;;;;;5013996;28;20059;-47
2023/01/18 02:32:36;;;;;;;12.95;5.00;;;-3276.30;88.30;;;;;;5021433;28;20030;-48
2023/01/18 02:35:26;;;;;;;12.05;4.85;;;-3276.30;88.60;;;;;;5014101;28;20116;-46
2023/01/18 02:38:14;;;;;;;7.78;4.65;;;-3276.30;88.40;;;;;;5028867;28;20036;-48
2023/01/18 02:41:20;;;;;;;6.75;4.82;;;-3276.30;88.50;;;;;;5013278;28;20105;-47
2023/01/18 02:46:37;;;;;;;5.72;4.25;;;-3276.20;88.60;;;;;;5026454;28;20036;-45
2023/01/18 02:49:34;;;;;;;7.97;4.30;;;-3276.20;88.50;;;;;;5032731;28;20023;-47
2023/01/18 02:52:03;;;;;;;7.05;4.95;;;-3276.30;88.70;;;;;;5027860;28;20037;-46
2023/01/18 02:54:33;;;;;;;8.68;4.68;;;-3276.30;88.50;;;;;;5021575;28;20695;-47
2023/01/18 02:57:03;;;;;;;6.88;4.47;;;-3276.20;88.30;;;;;;5012707;28;20038;-47
2023/01/18 02:59:35;;;;;;;7.50;4.32;;;-3276.10;88.30;;;;;;5013281;28;20026;-48
2023/01/18 03:02:10;;;;;;;6.75;3.95;;;-3276.10;88.20;;;;;;5028012;28;20031;-49
2023/01/18 03:04:57;;;;;;;6.22;4.43;;;-3276.10;88.40;;;;;;5031977;28;20057;-49
2023/01/18 03:07:34;;;;;;;6.50;4.45;;;-3276.10;88.40;;;;;;5018816;28;20030;-46
2023/01/18 03:10:05;;;;;;;11.52;5.80;;;-3276.10;88.60;;;;;;5013362;28;20092;-47
2023/01/18 03:12:49;;;;;;;6.03;4.47;;;-3276.10;88.60;;;;;;5012433;28;20061;-50
2023/01/18 03:15:34;;;;;;;11.25;5.00;;;-3276.10;88.50;;;;;;5023105;28;20048;-50
2023/01/18 03:18:14;;;;;;;7.05;4.07;;;-3276.10;88.60;;;;;;5030678;28;20164;-47
2023/01/18 03:20:49;;;;;;;8.45;5.55;;;-3276.10;88.60;;;;;;5015179;28;20021;-48
2023/01/18 03:23:39;;;;;;;9.57;5.63;;;-3276.10;88.60;;;;;;5027397;28;20041;-46
2023/01/18 03:26:14;;;;;;;7.72;5.45;;;-3276.10;88.60;;;;;;5013332;28;20022;-48
2023/01/18 03:35:09;;;;;;;9.33;5.47;;;-3276.10;88.60;;;;;;5013223;28;20502;-48
2023/01/18 03:37:39;;;;;;;6.70;5.07;;;-3276.10;88.60;;;;;;5013177;28;20347;-46
2023/01/18 03:40:26;;;;;;;9.43;5.30;;;-3276.10;88.80;;;;;;5013175;28;20026;-50
2023/01/18 03:43:13;;;;;;;7.43;5.60;;;-3276.10;88.90;;;;;;5011866;28;20041;-46
2023/01/18 03:45:43;;;;;;;9.98;6.20;;;-3276.10;88.70;;;;;;5015961;28;20079;-51
2023/01/18 03:48:14;;;;;;;;;;;-3276.10;88.70;;;;;;5027589;28;20042;-49
2023/01/18 03:50:52;;;;;;;8.43;5.43;;;-3276.00;88.60;;;;;;5011568;28;19909;-48
2023/01/18 03:53:49;;;;;;;10.90;5.57;;;-3276.00;88.60;;;;;;5011586;28;20041;-50
2023/01/18 03:56:36;;;;;;;9.23;5.35;;;-3276.00;88.70;;;;;;5005507;28;20041;-48
2023/01/18 03:59:04;;;;;;;9.00;5.72;;;-3276.00;88.60;;;;;;5012964;28;20038;-53
2023/01/18 04:01:31;;;;;;;7.43;4.80;;;-3276.00;88.70;;;;;;5024662;28;20316;-49
2023/01/18 04:03:58;;;;;;;9.50;5.75;;;-3276.00;88.70;;;;;;5030028;28;20475;-46
2023/01/18 04:06:24;;;;;;;10.52;6.60;;;-3275.90;88.60;;;;;;5028526;28;20057;-46
2023/01/18 04:08:52;;;;;;;8.70;6.50;;;-3275.90;88.60;;;;;;5016228;28;20026;-46
2023/01/18 04:11:17;;;;;;;10.77;5.38;;;-3275.90;88.70;;;;;;4998989;28;20426;-49
2023/01/18 04:13:44;;;;;;;9.35;6.45;;;-3275.90;88.80;;;;;;5016603;28;20053;-47
2023/01/18 04:16:11;;;;;;;9.00;6.22;;;-3275.90;88.70;;;;;;5022845;28;20030;-47
2023/01/18 04:18:38;;;;;;;7.70;6.60;;;-3275.90;88.80;;;;;;5036177;28;20091;-49
2023/01/18 04:21:08;;;;;;;9.20;7.05;;;-3275.80;88.70;;;;;;5035082;28;20040;-47
2023/01/18 04:23:38;;;;;;;7.07;5.50;;;-3275.90;88.70;;;;;;5019955;28;20040;-46
2023/01/18 04:26:05;;;;;;;7.22;6.05;;;-3275.80;88.70;;;;;;5030504;28;20040;-46
2023/01/18 04:28:33;;;;;;;7.95;6.57;;;-3275.80;88.80;;;;;;5016061;28;20107;-46
2023/01/18 04:31:00;;;;;;;12.70;7.88;;;-3275.80;89.00;;;;;;5022933;28;20076;-46
2023/01/18 04:33:27;;;;;;;10.35;7.07;;;-3275.90;88.90;;;;;;5024141;28;20084;-48
2023/01/18 04:35:54;;;;;;;9.50;6.93;;;-3275.90;89.00;;;;;;5016095;28;20585;-48
2023/01/18 04:38:24;;;;;;;9.27;7.82;;;-3275.80;89.00;;;;;;5015316;28;20127;-47
2023/01/18 04:40:53;;;;;;;9.80;7.40;;;-3275.80;89.10;;;;;;5020814;28;20025;-45
2023/01/18 04:43:20;;;;;;;12.63;8.15;;;-3275.80;89.10;;;;;;5019460;28;20042;-49
2023/01/18 04:45:57;;;;;;;11.43;7.90;;;-3275.80;89.10;;;;;;5022440;28;20044;-47
2023/01/18 04:48:27;;;;;;;13.25;8.60;;;-3275.80;89.20;;;;;;5015606;28;20140;-51
2023/01/18 04:50:54;;;;;;;9.93;8.55;;;-3275.90;89.10;;;;;;5015633;28;20025;-48
2023/01/18 04:53:21;;;;;;;10.90;8.05;;;-3275.80;89.10;;;;;;5015242;28;20064;-46
2023/01/18 04:55:51;;;;;;;12.75;9.02;;;-3275.80;88.90;;;;;;5029319;28;20033;-48
2023/01/18 04:58:17;;;;;;;11.77;9.40;;;-3275.90;89.00;;;;;;5035399;28;20446;-47
2023/01/18 05:00:48;;;;;;;12.50;9.25;;;-3275.80;88.90;;;;;;5033237;28;20390;-46
2023/01/18 05:03:14;;;;;;;11.80;9.27;;;-3275.80;88.80;;;;;;5029549;28;20164;-47
2023/01/18 05:05:41;;;;;;;12.00;9.32;;;-3275.80;88.90;;;;;;5033630;28;20026;-45
2023/01/18 05:08:08;;;;;;;11.15;9.05;;;-3275.80;88.90;;;;;;5034696;28;20022;-47
2023/01/18 05:10:33;;;;;;;11.95;9.30;;;-3275.70;88.90;;;;;;5034908;28;20538;-46
2023/01/18 05:13:00;;;;;;;11.00;8.98;;;-3275.80;89.00;;;;;;5019230;28;20117;-49
2023/01/18 05:15:27;;;;;;;12.43;8.57;;;-3275.80;89.10;;;;;;5015439;28;20436;-46
2023/01/18 05:17:54;;;;;;;11.30;9.30;;;-3275.80;89.10;;;;;;5023166;28;20354;-48
2023/01/18 05:20:21;;;;;;;10.95;8.65;;;-3275.80;88.90;;;;;;5015968;28;20030;-50
2023/01/18 05:22:48;;;;;;;13.27;10.05;;;-3275.80;88.80;;;;;;5034190;28;20030;-48
2023/01/18 05:25:14;;;;;;;12.20;10.07;;;-3275.70;88.80;;;;;;5034922;28;20033;-47
2023/01/18 05:27:41;;;;;;;12.32;9.73;;;-3275.70;88.70;;;;;;5016158;28;20366;-51
2023/01/18 05:30:09;;;;;;;10.65;9.00;;;-3275.70;89.00;;;;;;5033740;28;20069;-49
2023/01/18 05:32:36;;;;;;;12.75;9.55;;;-3275.70;89.00;;;;;;5034573;28;20046;-51
2023/01/18 05:35:06;;;;;;;11.05;8.68;;;-3275.70;88.90;;;;;;5027538;28;20022;-48
2023/01/18 05:37:32;;;;;;;9.45;8.35;;;-3275.70;88.80;;;;;;5014737;28;20475;-45
2023/01/18 05:39:59;;;;;;;11.88;9.48;;;-3275.60;88.80;;;;;;5019011;28;20092;-46
2023/01/18 05:42:26;;;;;;;13.18;10.73;;;-3275.60;88.90;;;;;;5015077;28;20037;-49
2023/01/18 05:44:52;;;;;;;12.18;9.45;;;-3275.60;89.00;;;;;;5014585;28;20038;-47
2023/01/18 05:47:19;;;;;;;12.45;9.38;;;-3275.70;89.20;;;;;;5030172;28;20041;-46
2023/01/18 05:49:46;;;;;;;10.73;8.98;;;-3275.60;89.00;;;;;;5034482;28;20100;-48
2023/01/18 05:52:12;;;;;;;12.48;10.13;;;-3275.70;89.30;;;;;;5017450;28;20041;-47
2023/01/18 05:54:44;;;;;;;11.57;9.77;;;-3275.60;89.20;;;;;;5014284;28;20026;-45
2023/01/18 05:57:11;;;;;;;12.32;9.50;;;-3275.70;89.20;;;;;;5013560;28;20100;-47
2023/01/18 05:59:38;;;;;;;13.57;9.25;;;-3275.60;89.10;;;;;;5027281;28;20025;-46
2023/01/18 06:02:05;;;;;;;11.10;9.07;;;-3275.70;89.40;;;;;;5018105;28;20030;-45
2023/01/18 06:04:32;;;;;;;11.55;10.32;;;-3275.60;89.20;;;;;;5030608;28;20435;-47
2023/01/18 06:06:59;;;;;;;12.63;10.63;;;-3275.60;89.20;;;;;;5016136;28;20033;-48
2023/01/18 06:09:26;;;;;;;14.20;9.52;;;-3275.60;89.40;;;;;;5014212;28;20034;-48
2023/01/18 06:11:52;;;;;;;13.60;10.73;;;-3275.70;89.30;;;;;;5012918;28;20053;-46
2023/01/18 06:14:19;;;;;;;12.35;10.35;;;-3275.70;89.20;;;;;;5012683;28;20037;-47
2023/01/18 06:16:47;;;;;;;11.25;8.82;;;-3275.70;89.20;;;;;;5031134;28;20470;-46
2023/01/18 06:19:14;;;;;;;12.88;10.70;;;-3275.60;89.20;;;;;;5033698;28;20029;-49
2023/01/18 06:21:40;;;;;;;18.05;11.32;;;-3275.60;89.10;;;;;;5034366;28;20029;-47
2023/01/18 06:24:07;;;;;;;13.80;10.48;;;-3275.60;89.10;;;;;;5032135;28;20029;-46
2023/01/18 06:26:34;;;;;;;12.00;9.70;;;-3275.60;89.30;;;;;;5032607;28;20419;-46
2023/01/18 06:29:04;;;;;;;13.40;10.18;;;-3275.60;89.40;;;;;;5032065;28;20026;-47
2023/01/18 06:31:30;;;;;;;17.75;10.20;;;-3275.60;89.30;;;;;;5022535;28;20121;-50
2023/01/18 06:33:57;;;;;;;12.10;9.98;;;-3275.60;89.30;;;;;;5022969;28;20057;-49
2023/01/18 06:36:24;;;;;;;13.73;9.15;;;-3275.60;89.10;;;;;;5027659;28;20056;-49
2023/01/18 06:38:53;;;;;;;20.33;11.15;;;-3275.60;89.30;;;;;;5031277;28;20042;-46
2023/01/18 06:41:19;;;;;;;13.57;11.88;;;-3275.60;89.30;;;;;;5032538;28;20029;-48
2023/01/18 06:43:47;;;;;;;14.20;10.60;;;-3275.60;89.40;;;;;;5029876;28;20029;-47
2023/01/18 06:46:14;;;;;;;13.43;10.17;;;-3275.60;89.30;;;;;;5027021;28;20120;-46
2023/01/18 06:48:41;;;;;;;14.88;10.40;;;-3275.60;89.20;;;;;;5032066;28;20332;-46
2023/01/18 06:51:08;;;;;;;12.85;10.35;;;-3275.50;89.20;;;;;;5018642;28;20359;-47
2023/01/18 06:53:35;;;;;;;14.43;10.10;;;-3275.60;89.30;;;;;;5013400;28;20033;-49
2023/01/18 06:56:03;;;;;;;18.05;11.60;;;-3275.60;89.20;;;;;;5013720;28;20390;-48
2023/01/18 06:58:33;;;;;;;15.88;10.73;;;-3275.60;89.30;;;;;;5024926;28;20045;-48
2023/01/18 07:01:00;;;;;;;16.42;10.25;;;-3275.60;89.30;;;;;;5031437;28;20112;-45
2023/01/18 07:03:27;;;;;;;15.20;10.20;;;-3275.60;89.40;;;;;;5027847;28;20127;-46
2023/01/18 07:05:55;;;;;;;15.13;10.77;;;-3275.60;89.30;;;;;;5033213;28;20465;-48
2023/01/18 07:08:22;;;;;;;16.48;11.88;;;-3275.60;89.40;;;;;;5033209;28;20036;-46
2023/01/18 07:10:52;;;;;;;12.90;10.48;;;-3275.60;89.40;;;;;;5013422;28;20026;-49
2023/01/18 07:13:21;;;;;;;14.80;10.30;;;-3275.60;89.40;;;;;;5013485;28;20041;-49
2023/01/18 07:15:57;;;;;;;19.33;10.80;;;-3275.60;89.50;;;;;;5019738;28;20030;-48
2023/01/18 07:18:28;;;;;;;16.77;11.38;;;-3275.60;89.50;;;;;;5033054;28;20021;-47
2023/01/18 07:20:59;;;;;;;15.80;11.05;;;-3275.60;89.40;;;;;;5021448;28;20112;-47
2023/01/18 07:23:27;;;;;;;15.55;12.07;;;-3275.60;89.20;;;;;;5013228;28;20029;-51
2023/01/18 07:26:16;;;;;;;15.45;10.07;;;-3275.60;89.30;;;;;;5030104;28;20052;-50
2023/01/18 07:28:47;;;;;;;16.80;12.05;;;-3275.60;89.30;;;;;;5013887;28;20030;-47
2023/01/18 07:31:15;;;;;;;13.77;10.20;;;-3275.60;89.50;;;;;;5031252;28;20041;-47
2023/01/18 07:33:41;;;;;;;13.57;10.82;;;-3275.60;89.20;;;;;;5032933;28;20017;-47
2023/01/18 07:36:09;;;;;;;12.75;10.55;;;-3275.60;89.20;;;;;;5013510;28;20029;-47
2023/01/18 07:38:37;;;;;;;12.48;10.30;;;-3275.60;89.20;;;;;;5031457;28;20044;-49
2023/01/18 07:41:10;;;;;;;13.73;11.02;;;-3275.60;89.10;;;;;;5034512;28;20033;-48
2023/01/18 07:43:37;;;;;;;15.40;10.85;;;-3275.60;89.10;;;;;;5034488;28;20431;-47
2023/01/18 07:46:11;;;;;;;17.90;10.98;;;-3275.60;89.30;;;;;;5035071;28;20530;-47
2023/01/18 07:48:38;;;;;;;14.43;10.18;;;-3275.60;89.20;;;;;;5025356;28;20034;-48
2023/01/18 07:51:07;;;;;;;13.65;10.52;;;-3275.60;89.20;;;;;;5019650;28;20102;-45
2023/01/18 07:53:38;;;;;;;14.70;11.10;;;-3275.70;89.30;;;;;;5036567;28;20025;-46
2023/01/18 07:56:16;;;;;;;16.92;11.00;;;-3275.70;89.30;;;;;;5036723;28;20256;-47
2023/01/18 07:58:45;;;;;;;16.33;11.15;;;-3275.70;89.10;;;;;;5034207;28;20021;-50
2023/01/18 08:01:14;;;;;;;;;;;-3275.70;89.10;;;;;;5037947;28;20375;-48
2023/01/18 08:03:42;;;;;;;11.68;9.18;;;-3275.70;89.20;;;;;;5014901;28;19917;-50
2023/01/18 08:06:11;;;;;;;13.15;10.43;;;-3275.80;89.10;;;;;;5021402;28;20340;-46
2023/01/18 08:08:39;;;;;;;13.13;9.43;;;-3275.70;89.10;;;;;;5036349;28;20021;-48
2023/01/18 08:11:06;;;;;;;15.00;11.18;;;-3275.80;89.20;;;;;;5031254;28;20041;-49
2023/01/18 08:13:36;;;;;;;15.98;10.88;;;-3275.80;89.30;;;;;;5017293;28;20098;-48
2023/01/18 08:16:05;;;;;;;16.88;11.63;;;-3275.80;89.30;;;;;;5035559;28;20104;-47
2023/01/18 08:18:34;;;;;;;13.68;10.30;;;-3275.80;89.30;;;;;;5035191;28;20528;-47
2023/01/18 08:21:01;;;;;;;14.20;10.65;;;-3275.80;89.20;;;;;;5018224;28;20363;-48
2023/01/18 08:23:28;;;;;;;18.85;11.93;;;-3275.90;89.30;;;;;;5026583;28;20025;-47
2023/01/18 08:26:00;;;;;;;16.60;11.38;;;-3275.90;89.20;;;;;;5033279;28;20065;-50
2023/01/18 08:28:27;;;;;;;14.32;10.82;;;-3275.90;89.30;;;;;;5019132;28;20109;-47
2023/01/18 08:31:05;;;;;;;16.25;10.75;;;-3276.00;89.30;;;;;;5027238;28;20026;-47
2023/01/18 08:33:34;;;;;;;17.50;12.23;;;-3276.00;89.10;;;;;;5015867;28;20022;-47
2023/01/18 08:36:00;;;;;;;15.90;11.07;;;-3276.10;89.10;;;;;;5016059;28;20084;-48
2023/01/18 08:38:27;;;;;;;18.70;11.05;;;-3276.10;89.10;;;;;;5024780;28;20292;-46
2023/01/18 08:40:53;;;;;;;14.85;10.07;;;-3276.20;89.10;;;;;;5035738;28;20021;-49
2023/01/18 08:43:22;;;;;;;15.73;11.48;;;-3276.30;89.20;;;;;;5034152;28;20037;-49
2023/01/18 08:45:53;;;;;;;20.88;11.57;;;-3276.30;89.00;;;;;;5033790;28;20021;-47
2023/01/18 08:48:20;;;;;;;13.93;11.40;;;-3276.40;88.90;;;;;;5027414;28;20036;-48
2023/01/18 08:50:46;;;;;;;14.82;10.57;;;-3276.40;88.80;;;;;;5034537;28;20565;-46
2023/01/18 08:53:16;;;;;;;15.60;10.48;;;-3276.50;88.60;;;;;;5023035;28;20030;-47
2023/01/18 08:55:43;;;;;;;16.27;10.65;;;-3276.60;88.60;;;;;;5015605;28;20104;-46
2023/01/18 08:58:10;;;;;;;24.35;12.13;;;-3276.60;88.50;;;;;;5018183;28;20026;-47
2023/01/18 09:00:37;;;;;;;15.55;10.45;;;-3276.60;88.50;;;;;;5034295;28;20048;-47
2023/01/18 09:03:05;;;;;;;13.85;10.68;;;-3276.60;88.50;;;;;;5023530;28;20030;-50
2023/01/18 09:05:34;;;;;;;15.15;10.63;;;-3276.70;88.50;;;;;;5034747;28;20048;-48
2023/01/18 09:08:03;;;;;;;15.10;10.85;;;0.00;88.40;;;;;;5033591;28;20081;-47
2023/01/18 09:10:36;;;;;;;11.57;9.40;;;0.00;88.50;;;;;;5034338;28;20057;-46
2023/01/18 09:13:04;;;;;;;16.25;10.85;;;0.10;88.30;;;;;;5020942;28;20052;-48
2023/01/18 09:15:32;;;;;;;17.27;10.65;;;0.20;88.10;;;;;;5035510;28;20033;-47
2023/01/18 09:18:04;;;;;;;13.55;10.27;;;0.30;87.80;;;;;;5034841;28;20037;-46
2023/01/18 09:20:34;;;;;;;19.45;10.20;;;0.40;87.60;;;;;;5027570;28;20080;-46
2023/01/18 09:23:06;;;;;;;14.20;10.32;;;0.50;87.40;;;;;;5026116;28;20044;-46
2023/01/18 09:25:36;;;;;;;12.75;8.82;;;0.60;87.30;;;;;;5029401;28;20045;-45
2023/01/18 09:28:04;;;;;;;17.25;10.40;;;0.70;86.90;;;;;;5032028;28;20044;-45
2023/01/18 09:30:30;;;;;;;14.73;11.18;;;0.90;86.30;;;;;;5020226;28;20337;-44
2023/01/18 09:32:57;;;;;;;15.23;10.43;;;0.90;85.80;;;;;;5013850;28;20383;-46
2023/01/18 09:35:24;;;;;;;16.65;9.63;;;1.00;85.90;;;;;;5013914;28;20034;-45
2023/01/18 09:37:50;;;;;;;14.55;10.10;;;1.20;85.70;;;;;;5014968;28;20036;-46
2023/01/18 09:40:20;;;;;;;10.68;8.77;;;1.20;85.50;;;;;;5014804;28;20029;-45
2023/01/18 09:42:51;;;;;;;17.98;10.35;;;1.20;85.20;;;;;;5016300;28;20029;-45
2023/01/18 09:45:33;;;;;;;14.98;9.90;;;1.40;85.10;;;;;;5034042;28;20095;-45
2023/01/18 09:48:10;;;;;;;14.52;9.00;;;1.40;84.70;;;;;;5032915;28;20344;-48
2023/01/18 09:50:43;;;;;;;15.07;9.57;;;1.50;84.90;;;;;;5029225;28;20025;-46
2023/01/18 09:53:46;;;;;;;13.02;8.32;;;1.50;84.40;;;;;;5030098;28;20121;-45
2023/01/18 09:56:38;;;;;;;12.20;8.45;;;1.60;84.60;;;;;;5014406;28;20121;-45
2023/01/18 09:59:24;;;;;;;12.48;8.98;;;1.60;84.20;;;;;;5029231;28;20459;-44
2023/01/18 10:01:51;;;;;;;10.60;8.05;;;1.70;84.00;;;;;;5033083;28;20448;-45
2023/01/18 10:04:31;;;;;;;12.82;9.30;;;1.80;84.00;;;;;;5027445;28;20046;-44
2023/01/18 10:07:19;;;;;;;14.02;8.85;;;1.90;83.90;;;;;;5014429;28;20028;-44
2023/01/18 10:09:54;;;;;;;14.52;8.63;;;1.90;83.80;;;;;;5014190;28;20026;-45
2023/01/18 10:12:42;;;;;;;12.07;8.88;;;2.00;83.40;;;;;;5020352;28;20025;-46
2023/01/18 10:15:21;;;;;;;12.80;8.10;;;2.00;83.20;;;;;;5033840;28;20033;-44
2023/01/18 10:17:51;;;;;;;11.25;8.35;;;2.00;83.20;;;;;;5024005;28;20466;-45
2023/01/18 10:20:27;;;;;;;11.75;8.55;;;2.00;83.10;;;;;;5033981;28;20336;-46
2023/01/18 10:23:23;;;;;;;12.60;8.20;;;2.00;82.90;;;;;;5027811;28;20610;-45
2023/01/18 10:26:19;;;;;;;12.48;7.88;;;2.00;82.70;;;;;;5033937;28;20048;-44
2023/01/18 10:29:11;;;;;;;12.23;7.45;;;2.00;83.10;;;;;;5029500;28;20025;-46
2023/01/18 10:32:04;;;;;;;12.45;8.05;;;2.00;83.40;;;;;;5031067;28;20021;-47
2023/01/18 10:34:34;;;;;;;10.25;7.65;;;1.90;83.60;;;;;;5013769;28;20101;-44
2023/01/18 10:37:25;;;;;;;11.32;7.57;;;1.90;83.70;;;;;;5013889;28;20033;-46
2023/01/18 10:39:58;;;;;;;10.95;7.68;;;2.00;83.90;;;;;;5028291;28;20030;-45
2023/01/18 10:42:50;;;;;;;12.30;7.82;;;2.00;83.70;;;;;;5027678;28;20036;-50
2023/01/18 10:45:25;;;;;;;11.63;7.32;;;2.00;83.50;;;;;;5032683;28;20025;-47
2023/01/18 10:47:53;;;;;;;9.70;6.68;;;2.10;83.70;;;;;;5029882;28;20519;-45
2023/01/18 10:50:32;;;;;;;12.50;7.75;;;2.20;83.60;;;;;;5013334;28;20104;-45
2023/01/18 10:53:23;;;;;;;9.18;6.97;;;2.20;83.40;;;;;;5012595;28;20038;-46
2023/01/18 10:56:11;;;;;;;13.07;7.13;;;2.20;83.20;;;;;;5013452;28;20132;-45
2023/01/18 10:59:14;;;;;;;12.23;7.63;;;2.30;82.70;;;;;;5031766;28;20036;-45
2023/01/18 11:01:53;;;;;;;10.73;6.57;;;2.30;82.80;;;;;;5025569;28;20490;-45
2023/01/18 11:04:31;;;;;;;10.32;6.93;;;2.40;82.80;;;;;;5012300;28;20058;-48
2023/01/18 11:07:03;;;;;;;15.57;7.53;;;2.40;82.50;;;;;;5013626;28;20489;-48
2023/01/18 11:10:00;;;;;;;9.82;6.72;;;2.40;82.30;;;;;;5013525;28;20129;-45
2023/01/18 11:12:59;;;;;;;9.98;6.70;;;2.50;82.30;;;;;;5024179;28;20021;-45
2023/01/18 11:15:27;;;;;;;8.57;6.32;;;2.50;82.00;;;;;;5034471;28;20045;-48
2023/01/18 11:17:56;;;;;;;13.25;7.60;;;2.60;82.10;;;;;;5037656;28;20033;-45
2023/01/18 11:20:46;;;;;;;11.60;7.47;;;2.60;81.70;;;;;;5038689;28;20033;-45
2023/01/18 11:23:24;;;;;;;10.80;7.32;;;2.70;81.80;;;;;;5034336;28;20041;-45
2023/01/18 11:25:59;;;;;;;12.95;7.40;;;2.70;82.20;;;;;;5019893;28;20026;-47
2023/01/18 11:28:38;;;;;;;8.27;5.65;;;2.70;81.90;;;;;;5037124;28;20872;-47
2023/01/18 11:31:16;;;;;;;12.52;7.18;;;2.80;82.00;;;;;;5028030;28;20104;-47
2023/01/18 11:34:06;;;;;;;9.85;6.38;;;2.80;82.00;;;;;;5038566;28;20048;-44
2023/01/18 11:36:39;;;;;;;10.48;5.85;;;2.90;82.10;;;;;;5037932;28;20037;-43
2023/01/18 11:39:25;;;;;;;9.38;6.40;;;2.90;81.90;;;;;;5039402;28;20489;-45
2023/01/18 11:42:18;;;;;;;12.07;6.97;;;2.90;81.50;;;;;;5038339;28;20067;-43
2023/01/18 11:44:56;;;;;;;8.55;5.30;;;2.90;81.40;;;;;;5021142;28;20046;-43
2023/01/18 11:47:50;;;;;;;8.88;5.75;;;2.90;81.80;;;;;;5018841;28;20034;-43
2023/01/18 11:50:44;;;;;;;8.68;6.15;;;2.90;81.60;;;;;;5019690;28;20018;-44
2023/01/18 11:53:25;;;;;;;10.13;6.43;;;3.00;81.40;;;;;;5030964;28;20049;-45
2023/01/18 11:56:07;;;;;;;9.55;5.60;;;3.10;81.50;;;;;;5037508;28;20108;-43
2023/01/18 11:58:35;;;;;;;9.23;5.22;;;3.10;81.60;;;;;;5036222;28;20025;-43
2023/01/18 12:01:32;;;;;;;7.78;5.65;;;3.10;81.30;;;;;;5037056;28;20112;-43
2023/01/18 12:04:39;;;;;;;7.90;5.50;;;3.00;81.40;;;;;;5018919;28;20049;-44
2023/01/18 12:07:24;;;;;;;11.20;5.43;;;3.10;81.50;;;;;;5028511;28;20418;-44
2023/01/18 12:09:59;;;;;;;11.60;5.70;;;3.10;81.80;;;;;;5019654;28;20018;-43
2023/01/18 12:12:37;;;;;;;8.48;4.88;;;3.10;81.90;;;;;;5034935;28;20421;-43
2023/01/18 12:15:26;;;;;;;9.02;5.78;;;3.10;82.10;;;;;;5019352;28;20116;-45
2023/01/18 12:17:57;;;;;;;8.00;5.22;;;3.20;81.90;;;;;;5025940;28;20032;-45
2023/01/18 12:20:52;;;;;;;7.80;4.93;;;3.20;81.20;;;;;;5038520;28;20098;-43
2023/01/18 12:23:31;;;;;;;7.93;5.05;;;3.20;81.10;;;;;;5023842;28;20053;-43
2023/01/18 12:26:28;;;;;;;8.15;5.15;;;3.30;80.70;;;;;;5019911;28;20439;-45
2023/01/18 12:29:24;;;;;;;8.70;4.65;;;3.30;81.00;;;;;;5034680;28;20061;-44
2023/01/18 12:32:21;;;;;;;9.38;5.97;;;3.30;80.70;;;;;;5033968;28;20042;-44
2023/01/18 12:35:15;;;;;;;6.80;4.70;;;3.30;80.90;;;;;;5033561;28;20033;-43
2023/01/18 12:37:53;;;;;;;9.48;4.63;;;3.30;81.10;;;;;;5034324;28;20033;-45
2023/01/18 12:40:41;;;;;;;9.93;5.28;;;3.30;80.70;;;;;;5035732;28;20021;-45
2023/01/18 12:44:04;;;;;;;6.72;4.20;;;3.40;79.90;;;;;;5032523;28;20086;-44
2023/01/18 12:46:43;;;;;;;9.05;4.57;;;3.40;80.50;;;;;;5016253;28;20072;-47
2023/01/18 12:49:17;;;;;;;7.95;4.78;;;3.40;80.80;;;;;;5033610;28;20057;-43
2023/01/18 12:51:48;;;;;;;6.60;4.45;;;3.40;80.60;;;;;;5024918;28;20477;-45
2023/01/18 12:54:20;;;;;;;11.07;5.18;;;3.40;80.60;;;;;;5028430;28;20034;-45
2023/01/18 12:56:51;;;;;;;9.57;5.18;;;3.40;80.00;;;;;;5020305;28;20021;-45
2023/01/18 12:59:44;;;;;;;7.30;4.75;;;3.40;80.00;;;;;;5035029;28;20048;-45
2023/01/18 13:02:34;;;;;;;7.18;4.60;;;3.40;80.30;;;;;;5017590;28;20038;-43
2023/01/18 13:05:18;;;;;;;8.30;4.97;;;3.40;79.90;;;;;;5015220;28;20049;-44
2023/01/18 13:07:59;;;;;;;9.77;4.22;;;3.50;80.20;;;;;;5015271;28;20030;-48
2023/01/18 13:10:28;;;;;;;11.07;4.90;;;3.50;79.90;;;;;;5015480;28;20355;-44
2023/01/18 13:12:56;;;;;;;10.23;5.60;;;3.40;80.00;;;;;;5028003;28;20034;-46
2023/01/18 13:15:34;;;;;;;7.03;4.35;;;3.40;80.40;;;;;;5030663;28;20026;-44
2023/01/18 13:18:12;;;;;;;8.85;4.68;;;3.40;80.60;;;;;;5015112;28;20100;-44
2023/01/18 13:20:50;;;;;;;10.82;6.15;;;3.40;80.40;;;;;;5013793;28;20403;-44
2023/01/18 13:23:31;;;;;;;7.68;5.18;;;3.40;80.50;;;;;;5014963;28;20029;-46
2023/01/18 13:26:42;;;;;;;9.55;4.80;;;3.50;80.20;;;;;;5016793;28;20616;-48
2023/01/18 13:29:21;;;;;;;7.85;4.65;;;3.40;80.70;;;;;;5033412;28;20025;-45